createdAt,value
2022-10-11T00:01:19.047Z,10.57
2022-10-11T00:03:45.613Z,10.62
2022-10-11T00:06:12.245Z,10.67
2022-10-11T00:08:38.810Z,10.65
2022-10-11T00:11:07.617Z,10.59
2022-10-11T00:13:34.723Z,10.56
2022-10-11T00:16:01.575Z,10.54
2022-10-11T00:18:28.251Z,10.57
2022-10-11T00:21:07.979Z,10.52
2022-10-11T00:23:35.226Z,10.50
2022-10-11T00:26:04.897Z,10.55
2022-10-11T00:28:31.906Z,10.56
2022-10-11T00:30:58.557Z,10.55
2022-10-11T00:33:25.225Z,10.52
2022-10-11T00:35:51.814Z,10.56
2022-10-11T00:38:18.514Z,10.62
2022-10-11T00:40:45.715Z,10.62
2022-10-11T00:43:17.240Z,10.63
2022-10-11T00:46:00.395Z,10.65
2022-10-11T00:48:40.392Z,10.62
2022-10-11T00:51:19.489Z,10.60
2022-10-11T00:53:47.912Z,10.58
2022-10-11T00:56:22.470Z,10.64
2022-10-11T00:58:49.809Z,10.59
2022-10-11T01:01:16.449Z,10.64
2022-10-11T01:03:44.293Z,10.63
2022-10-11T01:06:10.971Z,10.67
2022-10-11T01:08:38.185Z,10.69
2022-10-11T01:11:05.267Z,10.68
2022-10-11T01:13:39.093Z,10.73
2022-10-11T01:16:17.917Z,10.75
2022-10-11T01:18:44.440Z,10.79
2022-10-11T01:21:10.967Z,10.82
2022-10-11T01:24:16.209Z,10.84
2022-10-11T01:26:51.798Z,10.85
2022-10-11T01:29:55.914Z,10.91
2022-10-11T01:32:28.641Z,10.99
2022-10-11T01:35:24.143Z,10.95
2022-10-11T01:38:01.889Z,11.02
2022-10-11T01:40:35.217Z,11.03
2022-10-11T01:43:02.081Z,10.93
2022-10-11T01:45:29.090Z,10.93
2022-10-11T01:48:03.205Z,10.95
2022-10-11T01:50:40.929Z,10.98
2022-10-11T01:53:21.522Z,10.95
2022-10-11T01:55:57.365Z,10.99
2022-10-11T01:58:52.946Z,11.06
2022-10-11T02:01:40.957Z,11.09
2022-10-11T02:04:17.077Z,11.04
2022-10-11T02:07:15.107Z,11.07
2022-10-11T02:09:53.729Z,11.08
2022-10-11T02:12:28.049Z,11.04
2022-10-11T02:14:56.493Z,11.04
2022-10-11T02:17:27.615Z,11.08
2022-10-11T02:19:57.209Z,11.11
2022-10-11T02:22:28.151Z,11.11
2022-10-11T02:24:56.909Z,11.11
2022-10-11T02:27:26.793Z,11.15
2022-10-11T02:29:54.749Z,11.14
2022-10-11T02:32:23.692Z,11.13
2022-10-11T02:34:58.446Z,11.16
2022-10-11T02:37:32.926Z,11.16
2022-10-11T02:40:03.989Z,11.17
2022-10-11T02:42:34.013Z,11.07
2022-10-11T02:45:04.733Z,11.01
2022-10-11T02:47:32.129Z,11.08
2022-10-11T02:49:59.757Z,11.13
2022-10-11T02:52:26.768Z,11.09
2022-10-11T02:54:53.337Z,11.11
2022-10-11T02:57:19.909Z,11.08
2022-10-11T02:59:46.434Z,11.06
2022-10-11T03:02:13.126Z,11.04
2022-10-11T03:04:39.653Z,10.97
2022-10-11T03:07:06.196Z,10.95
2022-10-11T03:09:32.751Z,10.92
2022-10-11T03:11:59.282Z,10.92
2022-10-11T03:14:26.911Z,10.87
2022-10-11T03:16:53.466Z,10.88
2022-10-11T03:19:20.037Z,10.85
2022-10-11T03:21:46.808Z,10.87
2022-10-11T03:24:13.433Z,10.88
2022-10-11T03:26:39.997Z,10.90
2022-10-11T03:29:06.518Z,10.85
2022-10-11T03:31:33.053Z,10.84
2022-10-11T03:33:59.590Z,10.81
2022-10-11T03:36:26.104Z,10.84
2022-10-11T03:38:52.710Z,10.82
2022-10-11T03:41:19.242Z,10.73
2022-10-11T03:43:45.780Z,10.72
2022-10-11T03:46:12.406Z,10.74
2022-10-11T03:48:38.991Z,10.76
2022-10-11T03:51:05.669Z,10.71
2022-10-11T03:53:32.209Z,10.63
2022-10-11T03:55:58.726Z,10.55
2022-10-11T03:58:25.315Z,10.60
2022-10-11T04:00:52.769Z,10.59
2022-10-11T04:03:19.403Z,10.53
2022-10-11T04:05:45.926Z,10.49
2022-10-11T04:08:12.590Z,10.53
2022-10-11T04:10:40.074Z,10.51
2022-10-11T04:13:07.387Z,10.54
2022-10-11T04:15:33.991Z,10.50
2022-10-11T04:18:00.563Z,10.46
2022-10-11T04:20:27.116Z,10.48
2022-10-11T04:22:53.657Z,10.46
2022-10-11T04:25:20.206Z,10.45
2022-10-11T04:27:46.739Z,10.48
2022-10-11T04:30:13.623Z,10.46
2022-10-11T04:32:40.181Z,10.48
2022-10-11T04:35:06.962Z,10.52
2022-10-11T04:37:33.490Z,10.50
2022-10-11T04:40:00.132Z,10.45
2022-10-11T04:42:26.678Z,10.50
2022-10-11T04:44:53.197Z,10.45
2022-10-11T04:47:19.736Z,10.47
2022-10-11T04:49:46.258Z,10.45
2022-10-11T04:52:12.848Z,10.48
2022-10-11T04:54:39.438Z,10.47
2022-10-11T04:57:06.072Z,10.48
2022-10-11T04:59:32.634Z,10.43
2022-10-11T05:01:59.204Z,10.42
2022-10-11T05:04:25.794Z,10.42
2022-10-11T05:06:52.369Z,10.45
2022-10-11T05:09:19.174Z,10.47
2022-10-11T05:11:45.734Z,10.44
2022-10-11T05:14:12.254Z,10.45
2022-10-11T05:16:38.798Z,10.46
2022-10-11T05:19:05.400Z,10.48
2022-10-11T05:21:32.070Z,10.42
2022-10-11T05:23:58.643Z,10.43
2022-10-11T05:26:27.392Z,10.45
2022-10-11T05:28:55.109Z,10.45
2022-10-11T05:31:21.846Z,10.42
2022-10-11T05:33:48.482Z,10.49
2022-10-11T05:36:15.216Z,10.48
2022-10-11T05:38:41.833Z,10.46
2022-10-11T05:41:11.665Z,10.52
2022-10-11T05:43:38.179Z,10.52
2022-10-11T05:46:05.941Z,10.67
2022-10-11T05:48:32.719Z,10.67
2022-10-11T05:51:05.237Z,10.75
2022-10-11T05:53:32.490Z,10.89
2022-10-11T05:55:59.652Z,11.00
2022-10-11T05:58:26.472Z,11.07
2022-10-11T06:00:53.388Z,11.19
2022-10-11T06:03:21.119Z,11.27
2022-10-11T06:05:47.851Z,11.38
2022-10-11T06:08:14.916Z,11.51
2022-10-11T06:10:41.872Z,11.53
2022-10-11T06:13:09.633Z,11.54
2022-10-11T06:15:38.986Z,11.56
2022-10-11T06:18:05.622Z,11.69
2022-10-11T06:20:32.280Z,11.71
2022-10-11T06:22:59.190Z,11.82
2022-10-11T06:25:25.764Z,11.87
2022-10-11T06:27:52.350Z,11.93
2022-10-11T06:30:19.018Z,12.04
2022-10-11T06:32:45.610Z,12.14
2022-10-11T06:35:12.306Z,12.24
2022-10-11T06:37:38.890Z,12.35
2022-10-11T06:40:06.007Z,12.45
2022-10-11T06:42:32.623Z,12.48
2022-10-11T06:44:59.253Z,12.55
2022-10-11T06:47:25.914Z,12.46
2022-10-11T06:49:52.580Z,12.44
2022-10-11T06:52:19.399Z,12.52
2022-10-11T06:54:46.009Z,12.40
2022-10-11T06:57:12.698Z,12.50
2022-10-11T06:59:39.372Z,12.64
2022-10-11T07:02:06.933Z,12.82
2022-10-11T07:04:33.986Z,12.93
2022-10-11T07:07:00.883Z,13.01
2022-10-11T07:09:27.515Z,13.15
2022-10-11T07:11:54.078Z,13.10
2022-10-11T07:14:20.694Z,13.09
2022-10-11T07:16:47.302Z,13.06
2022-10-11T07:19:13.958Z,13.09
2022-10-11T07:21:40.645Z,13.09
2022-10-11T07:24:07.513Z,13.18
2022-10-11T07:26:38.603Z,13.22
2022-10-11T07:29:07.614Z,13.19
2022-10-11T07:31:34.207Z,13.15
2022-10-11T07:34:00.931Z,13.33
2022-10-11T07:36:27.643Z,13.36
2022-10-11T07:38:55.340Z,13.51
2022-10-11T07:41:22.022Z,13.57
2022-10-11T07:43:49.791Z,13.74
2022-10-11T07:46:17.406Z,13.67
2022-10-11T07:48:44.060Z,13.80
2022-10-11T07:51:12.104Z,14.00
2022-10-11T07:53:43.144Z,14.03
2022-10-11T07:56:12.541Z,13.93
2022-10-11T07:58:40.224Z,13.98
2022-10-11T08:01:07.499Z,13.98
2022-10-11T08:03:34.146Z,14.09
2022-10-11T08:06:06.158Z,14.33
2022-10-11T08:08:33.134Z,14.35
2022-10-11T08:10:59.851Z,14.49
2022-10-11T08:13:27.125Z,14.26
2022-10-11T08:15:53.984Z,14.41
2022-10-11T08:18:20.677Z,14.41
2022-10-11T08:20:47.446Z,14.66
2022-10-11T08:23:14.101Z,14.78
2022-10-11T08:25:44.578Z,14.84
2022-10-11T08:28:16.597Z,14.81
2022-10-11T08:30:50.756Z,14.86
2022-10-11T08:33:18.510Z,14.73
2022-10-11T08:35:45.186Z,15.05
2022-10-11T08:38:11.930Z,15.13
2022-10-11T08:40:38.932Z,14.99
2022-10-11T08:43:32.126Z,15.24
2022-10-11T08:46:01.173Z,15.33
2022-10-11T08:48:46.359Z,15.41
2022-10-11T08:51:30.670Z,15.51
2022-10-11T08:54:38.833Z,15.79
2022-10-11T08:57:06.550Z,15.81
2022-10-11T08:59:41.766Z,16.17
2022-10-11T09:02:35.137Z,16.37
2022-10-11T09:05:18.110Z,16.42
2022-10-11T09:08:06.194Z,16.38
2022-10-11T09:11:05.589Z,16.41
2022-10-11T09:13:53.430Z,16.59
2022-10-11T09:16:35.023Z,16.86
2022-10-11T09:19:16.813Z,17.00
2022-10-11T09:21:51.542Z,17.18
2022-10-11T09:24:47.365Z,17.09
2022-10-11T09:27:29.130Z,17.29
2022-10-11T09:30:17.261Z,17.46
2022-10-11T09:32:46.792Z,17.35
2022-10-11T09:35:22.511Z,17.57
2022-10-11T09:38:05.500Z,17.58
2022-10-11T09:40:43.446Z,17.81
2022-10-11T09:43:10.580Z,17.77
2022-10-11T09:45:37.342Z,17.83
2022-10-11T09:48:05.899Z,18.17
2022-10-11T09:50:32.990Z,18.39
2022-10-11T09:53:03.573Z,18.08
2022-10-11T09:55:52.494Z,18.43
2022-10-11T09:58:35.983Z,17.95
2022-10-11T10:01:07.875Z,18.18
2022-10-11T10:03:40.625Z,18.15
2022-10-11T10:06:25.296Z,18.36
2022-10-11T10:08:52.187Z,18.46
2022-10-11T10:11:19.412Z,18.74
2022-10-11T10:13:47.155Z,18.88
2022-10-11T10:16:31.574Z,19.03
2022-10-11T10:19:03.522Z,19.26
2022-10-11T10:21:36.654Z,19.38
2022-10-11T10:24:12.012Z,19.60
2022-10-11T10:26:39.989Z,19.45
2022-10-11T10:29:09.532Z,19.34
2022-10-11T10:31:55.273Z,19.55
2022-10-11T10:34:28.772Z,19.60
2022-10-11T10:37:11.822Z,19.59
2022-10-11T10:39:57.288Z,19.83
2022-10-11T10:42:23.963Z,19.86
2022-10-11T10:44:53.356Z,20.01
2022-10-11T10:47:28.714Z,19.86
2022-10-11T10:50:08.404Z,20.05
2022-10-11T10:52:48.713Z,20.27
2022-10-11T10:55:30.508Z,20.09
2022-10-11T10:58:22.032Z,19.66
2022-10-11T11:00:51.022Z,19.51
2022-10-11T11:03:42.672Z,19.73
2022-10-11T11:06:21.788Z,20.05
2022-10-11T11:09:00.164Z,20.15
2022-10-11T11:11:33.502Z,20.05
2022-10-11T11:14:15.820Z,20.24
2022-10-11T11:16:57.912Z,20.41
2022-10-11T11:19:58.370Z,20.42
2022-10-11T11:22:50.002Z,20.61
2022-10-11T11:25:44.980Z,20.35
2022-10-11T11:28:30.314Z,20.58
2022-10-11T11:31:26.486Z,20.78
2022-10-11T11:34:10.731Z,20.83
2022-10-11T11:37:06.931Z,20.63
2022-10-11T11:40:07.134Z,20.70
2022-10-11T11:42:40.947Z,20.74
2022-10-11T11:45:28.102Z,20.70
2022-10-11T11:48:07.066Z,20.36
2022-10-11T11:50:40.011Z,20.78
2022-10-11T11:53:13.790Z,20.79
2022-10-11T11:55:49.391Z,20.67
2022-10-11T11:58:31.088Z,20.55
2022-10-11T12:01:21.532Z,20.55
2022-10-11T12:03:50.756Z,20.48
2022-10-11T12:06:21.122Z,20.77
2022-10-11T12:09:15.454Z,20.67
2022-10-11T12:12:00.031Z,20.77
2022-10-11T12:14:35.657Z,20.80
2022-10-11T12:17:23.755Z,20.83
2022-10-11T12:20:08.624Z,20.85
2022-10-11T12:22:35.183Z,20.79
2022-10-11T12:25:22.015Z,20.92
2022-10-11T12:27:53.946Z,20.88
2022-10-11T12:30:48.175Z,20.99
2022-10-11T12:33:24.550Z,20.79
2022-10-11T12:35:54.245Z,20.55
2022-10-11T12:38:31.390Z,20.40
2022-10-11T12:41:08.637Z,20.45
2022-10-11T12:44:07.653Z,20.85
2022-10-11T12:46:41.485Z,20.86
2022-10-11T12:49:23.993Z,20.75
2022-10-11T12:52:06.977Z,20.86
2022-10-11T12:55:04.648Z,20.97
2022-10-11T12:58:01.256Z,20.17
2022-10-11T13:00:31.121Z,20.19
2022-10-11T13:02:59.743Z,20.33
2022-10-11T13:05:27.704Z,20.17
2022-10-11T13:07:56.034Z,20.23
2022-10-11T13:10:36.917Z,20.34
2022-10-11T13:13:09.978Z,20.27
2022-10-11T13:15:36.565Z,19.79
2022-10-11T13:18:03.183Z,20.25
2022-10-11T13:20:32.220Z,19.77
2022-10-11T13:22:58.910Z,20.21
2022-10-11T13:25:29.407Z,20.41
2022-10-11T13:27:58.518Z,20.56
2022-10-11T13:30:28.873Z,20.66
2022-10-11T13:32:55.632Z,20.67
2022-10-11T13:35:38.388Z,20.47
2022-10-11T13:38:08.133Z,20.48
2022-10-11T13:40:35.709Z,20.24
2022-10-11T13:43:02.583Z,20.27
2022-10-11T13:45:32.268Z,20.54
2022-10-11T13:47:58.963Z,20.67
2022-10-11T13:50:32.238Z,20.47
2022-10-11T13:53:02.287Z,20.46
2022-10-11T13:55:47.141Z,20.32
2022-10-11T13:58:20.699Z,20.42
2022-10-11T14:00:56.481Z,20.55
2022-10-11T14:03:24.820Z,20.29
2022-10-11T14:05:59.027Z,20.48
2022-10-11T14:08:25.712Z,20.57
2022-10-11T14:10:56.763Z,20.58
2022-10-11T14:13:25.823Z,20.33
2022-10-11T14:16:04.432Z,20.23
2022-10-11T14:18:36.905Z,20.09
2022-10-11T14:21:46.997Z,20.33
2022-10-11T14:24:14.593Z,20.06
2022-10-11T14:26:52.251Z,19.97
2022-10-11T14:29:35.089Z,19.92
2022-10-11T14:32:04.733Z,19.88
2022-10-11T14:34:31.589Z,19.65
2022-10-11T14:36:58.206Z,19.65
2022-10-11T14:39:26.297Z,19.67
2022-10-11T14:41:53.269Z,19.65
2022-10-11T14:44:21.097Z,19.54
2022-10-11T14:46:48.901Z,19.31
2022-10-11T14:49:25.250Z,19.48
2022-10-11T14:51:53.054Z,19.54
2022-10-11T14:54:22.645Z,19.38
2022-10-11T14:56:53.881Z,19.38
2022-10-11T14:59:22.602Z,19.53
2022-10-11T15:01:54.016Z,19.54
2022-10-11T15:04:21.729Z,19.56
2022-10-11T15:06:48.888Z,19.68
2022-10-11T15:09:17.078Z,19.58
2022-10-11T15:11:43.804Z,19.39
2022-10-11T15:14:10.464Z,19.21
2022-10-11T15:16:37.086Z,19.00
2022-10-11T15:19:03.908Z,18.96
2022-10-11T15:21:30.645Z,18.87
2022-10-11T15:23:57.218Z,18.61
2022-10-11T15:26:28.712Z,18.46
2022-10-11T15:28:56.989Z,18.57
2022-10-11T15:31:23.801Z,18.39
2022-10-11T15:33:50.455Z,18.28
2022-10-11T15:36:19.433Z,18.26
2022-10-11T15:38:46.479Z,18.18
2022-10-11T15:41:15.613Z,18.15
2022-10-11T15:43:43.809Z,18.15
2022-10-11T15:46:17.429Z,18.05
2022-10-11T15:48:45.067Z,17.81
2022-10-11T15:51:11.713Z,17.55
2022-10-11T15:53:38.353Z,17.55
2022-10-11T15:56:07.810Z,17.54
2022-10-11T15:58:36.878Z,17.43
2022-10-11T16:01:06.799Z,17.31
2022-10-11T16:03:34.089Z,17.36
2022-10-11T16:06:04.816Z,17.20
2022-10-11T16:08:33.659Z,17.08
2022-10-11T16:11:00.823Z,17.02
2022-10-11T16:13:27.446Z,16.90
2022-10-11T16:15:54.089Z,16.87
2022-10-11T16:18:22.158Z,16.83
2022-10-11T16:20:51.346Z,16.75
2022-10-11T16:23:19.814Z,16.70
2022-10-11T16:25:46.473Z,16.59
2022-10-11T16:28:13.119Z,16.58
2022-10-11T16:30:43.135Z,16.49
2022-10-11T16:33:09.993Z,16.39
2022-10-11T16:35:40.511Z,16.33
2022-10-11T16:38:07.093Z,16.22
2022-10-11T16:40:35.740Z,16.15
2022-10-11T16:43:07.349Z,16.10
2022-10-11T16:45:35.032Z,16.02
2022-10-11T16:48:02.018Z,15.96
2022-10-11T16:50:29.107Z,15.89
2022-10-11T16:52:55.898Z,15.82
2022-10-11T16:55:23.085Z,15.78
2022-10-11T16:57:49.634Z,15.68
2022-10-11T17:00:16.563Z,15.66
2022-10-11T17:02:43.129Z,15.62
2022-10-11T17:05:09.656Z,15.56
2022-10-11T17:07:36.270Z,15.44
2022-10-11T17:10:02.915Z,15.42
2022-10-11T17:12:29.771Z,15.37
2022-10-11T17:14:56.546Z,15.36
2022-10-11T17:17:23.253Z,15.35
2022-10-11T17:19:50.148Z,15.34
2022-10-11T17:22:19.266Z,15.33
2022-10-11T17:24:46.216Z,15.27
2022-10-11T17:27:13.142Z,15.24
2022-10-11T17:29:39.771Z,15.23
2022-10-11T17:32:06.728Z,15.34
2022-10-11T17:34:33.647Z,15.27
2022-10-11T17:37:00.205Z,15.25
2022-10-11T17:39:26.811Z,15.21
2022-10-11T17:41:53.417Z,15.21
2022-10-11T17:44:21.621Z,15.23
2022-10-11T17:46:48.309Z,15.27
2022-10-11T17:49:15.035Z,15.19
2022-10-11T17:51:42.003Z,15.28
2022-10-11T17:54:12.790Z,15.23
2022-10-11T17:56:40.949Z,15.20
2022-10-11T17:59:08.820Z,15.19
2022-10-11T18:01:36.114Z,15.13
2022-10-11T18:04:04.272Z,15.06
2022-10-11T18:06:33.067Z,14.97
2022-10-11T18:09:01.265Z,14.92
2022-10-11T18:11:27.935Z,14.92
2022-10-11T18:13:54.592Z,14.86
2022-10-11T18:16:23.263Z,14.85
2022-10-11T18:18:50.216Z,14.84
2022-10-11T18:21:18.703Z,14.80
2022-10-11T18:23:45.620Z,14.77
2022-10-11T18:26:20.166Z,14.79
2022-10-11T18:28:47.861Z,14.75
2022-10-11T18:31:17.475Z,14.73
2022-10-11T18:33:45.979Z,14.72
2022-10-11T18:36:14.521Z,14.66
2022-10-11T18:38:46.126Z,14.63
2022-10-11T18:41:14.647Z,14.63
2022-10-11T18:43:41.361Z,14.59
2022-10-11T18:46:10.621Z,14.58
2022-10-11T18:48:43.113Z,14.52
2022-10-11T18:51:12.722Z,14.52
2022-10-11T18:53:39.307Z,14.52
2022-10-11T18:56:08.010Z,14.52
2022-10-11T18:58:35.982Z,14.52
2022-10-11T19:01:20.545Z,14.52
2022-10-11T19:03:49.435Z,14.50
2022-10-11T19:06:18.589Z,14.50
2022-10-11T19:08:55.942Z,14.49
2022-10-11T19:11:25.212Z,14.51
2022-10-11T19:13:59.818Z,14.45
2022-10-11T19:16:27.990Z,14.43
2022-10-11T19:18:54.565Z,14.42
2022-10-11T19:21:21.719Z,14.47
2022-10-11T19:23:49.220Z,14.41
2022-10-11T19:26:24.305Z,14.36
2022-10-11T19:29:05.263Z,14.38
2022-10-11T19:31:33.241Z,14.37
2022-10-11T19:33:59.947Z,14.41
2022-10-11T19:36:28.401Z,14.41
2022-10-11T19:38:56.887Z,14.36
2022-10-11T19:41:24.555Z,14.39
2022-10-11T19:43:51.587Z,14.33
2022-10-11T19:46:37.820Z,14.35
2022-10-11T19:49:08.107Z,14.36
2022-10-11T19:51:35.195Z,14.37
2022-10-11T19:54:04.895Z,14.34
2022-10-11T19:56:32.646Z,14.35
2022-10-11T19:58:59.878Z,14.34
2022-10-11T20:01:29.192Z,14.33
2022-10-11T20:03:57.826Z,14.32
2022-10-11T20:06:25.830Z,14.29
2022-10-11T20:09:10.398Z,14.24
2022-10-11T20:11:39.192Z,14.23
2022-10-11T20:14:06.103Z,14.17
2022-10-11T20:16:32.726Z,14.13
2022-10-11T20:18:59.412Z,14.11
2022-10-11T20:21:27.939Z,14.10
2022-10-11T20:23:58.722Z,14.12
2022-10-11T20:26:26.802Z,14.14
2022-10-11T20:28:56.028Z,14.08
2022-10-11T20:31:28.542Z,14.09
2022-10-11T20:33:57.347Z,14.06
2022-10-11T20:36:26.013Z,14.07
2022-10-11T20:38:52.682Z,14.05
2022-10-11T20:41:22.224Z,14.02
2022-10-11T20:43:52.086Z,13.98
2022-10-11T20:46:21.390Z,13.95
2022-10-11T20:48:58.894Z,13.98
2022-10-11T20:51:28.822Z,14.01
2022-10-11T20:53:56.393Z,13.99
2022-10-11T20:56:23.293Z,13.96
2022-10-11T20:58:54.254Z,13.95
2022-10-11T21:01:23.262Z,13.91
2022-10-11T21:03:50.447Z,13.95
2022-10-11T21:06:17.026Z,13.96
2022-10-11T21:08:43.654Z,13.93
2022-10-11T21:11:10.985Z,13.97
2022-10-11T21:13:38.191Z,13.97
2022-10-11T21:16:11.183Z,13.99
2022-10-11T21:18:38.135Z,13.96
2022-10-11T21:21:06.777Z,13.95
2022-10-11T21:23:33.648Z,13.98
2022-10-11T21:26:04.930Z,13.99
2022-10-11T21:28:31.719Z,13.97
2022-10-11T21:31:05.112Z,13.96
2022-10-11T21:33:31.806Z,13.91
2022-10-11T21:35:58.407Z,13.93
2022-10-11T21:38:25.013Z,13.91
2022-10-11T21:40:51.898Z,13.93
2022-10-11T21:43:18.516Z,13.93
2022-10-11T21:45:45.866Z,13.93
2022-10-11T21:48:12.573Z,13.92
2022-10-11T21:50:39.332Z,13.87
2022-10-11T21:53:05.982Z,13.75
2022-10-11T21:55:32.561Z,13.72
2022-10-11T21:57:59.415Z,13.73
2022-10-11T22:00:25.958Z,13.63
2022-10-11T22:02:52.615Z,13.65
2022-10-11T22:05:19.221Z,13.56
2022-10-11T22:07:45.786Z,13.52
2022-10-11T22:10:12.393Z,13.51
2022-10-11T22:12:38.939Z,13.43
2022-10-11T22:15:06.076Z,13.37
2022-10-11T22:17:32.665Z,13.30
2022-10-11T22:19:59.250Z,13.27
2022-10-11T22:22:26.228Z,13.20
2022-10-11T22:24:52.797Z,13.21
2022-10-11T22:27:19.436Z,13.19
2022-10-11T22:29:45.995Z,13.13
2022-10-11T22:32:12.582Z,13.20
2022-10-11T22:34:39.142Z,13.08
2022-10-11T22:37:05.689Z,13.16
2022-10-11T22:39:32.245Z,13.13
2022-10-11T22:41:59.122Z,13.17
2022-10-11T22:44:25.701Z,13.19
2022-10-11T22:46:52.272Z,13.25
2022-10-11T22:49:18.850Z,13.28
2022-10-11T22:51:45.473Z,13.25
2022-10-11T22:54:12.155Z,13.25
2022-10-11T22:56:38.747Z,13.22
2022-10-11T22:59:05.383Z,13.30
2022-10-11T23:01:32.140Z,13.27
2022-10-11T23:03:58.768Z,13.25
2022-10-11T23:06:25.391Z,13.20
2022-10-11T23:08:51.951Z,13.19
2022-10-11T23:11:18.542Z,13.21
2022-10-11T23:13:45.081Z,13.18
2022-10-11T23:16:13.075Z,13.25
2022-10-11T23:18:40.045Z,13.25
2022-10-11T23:21:07.488Z,13.22
2022-10-11T23:23:34.244Z,13.24
2022-10-11T23:26:05.460Z,13.17
2022-10-11T23:28:32.202Z,13.17
2022-10-11T23:30:58.872Z,13.15
2022-10-11T23:33:25.542Z,13.13
2022-10-11T23:35:52.137Z,13.15
2022-10-11T23:38:18.711Z,13.11
2022-10-11T23:40:45.253Z,13.07
2022-10-11T23:43:11.800Z,13.01
2022-10-11T23:45:38.651Z,12.99
2022-10-11T23:48:05.205Z,12.91
2022-10-11T23:50:31.714Z,12.86
2022-10-11T23:52:58.269Z,12.83
2022-10-11T23:55:24.861Z,12.71
2022-10-11T23:57:51.457Z,12.71
